Time;durP1;ratioP1;P1;durP2;ratioP2;P2;SDS_P1;SDS_P2;PMS_P1;PMS_P2;Temp;Humidity;BMP_temperature;BMP_pressure;BME280_temperature;BME280_humidity;BME280_pressure;Samples;Min_cycle;Max_cycle;Signal;HPM_P1;HPM_P2
2023/08/07 00:02:00;;;;;;;7.55;1.58;;;;;;;16.04;78.29;99653.69;4975852;28;20498;-81
2023/08/07 00:04:26;;;;;;;3.60;1.35;;;;;;;16.03;78.05;99656.56;4965755;28;20048;-82
2023/08/07 00:06:53;;;;;;;4.20;1.67;;;;;;;16.08;78.53;99623.88;5004979;28;20100;-81
2023/08/07 00:09:20;;;;;;;4.40;1.90;;;;;;;16.08;78.38;99634.59;4984902;28;20078;-80
2023/08/07 00:11:47;;;;;;;4.18;1.70;;;;;;;16.06;78.52;99645.50;4969185;28;20104;-80
2023/08/07 00:14:13;;;;;;;2.63;1.50;;;;;;;16.04;78.43;99645.66;4974745;28;20069;-82
2023/08/07 00:16:41;;;;;;;5.22;1.80;;;;;;;16.04;78.14;99650.19;4965007;28;20050;-80
2023/08/07 00:19:08;;;;;;;5.07;2.00;;;;;;;16.04;78.38;99655.53;4981059;28;20105;-81
2023/08/07 00:21:35;;;;;;;3.20;1.50;;;;;;;16.03;78.52;99651.22;4986244;28;20045;-80
2023/08/07 00:24:02;;;;;;;4.50;1.38;;;;;;;16.03;78.19;99638.66;4958931;28;20092;-80
2023/08/07 00:26:29;;;;;;;3.63;1.77;;;;;;;16.04;78.32;99650.19;5023988;28;20048;-81
2023/08/07 00:28:56;;;;;;;5.22;1.60;;;;;;;16.03;78.52;99635.13;4991925;28;20121;-81
2023/08/07 00:31:23;;;;;;;6.40;1.95;;;;;;;16.03;78.90;99633.28;4969542;28;20047;-81
2023/08/07 00:33:53;;;;;;;2.85;1.55;;;;;;;16.02;78.99;99633.44;4955572;28;20447;-81
2023/08/07 00:36:20;;;;;;;4.53;1.70;;;;;;;16.01;78.72;99629.13;4977550;28;20046;-80
2023/08/07 00:38:47;;;;;;;5.60;1.77;;;;;;;15.99;78.76;99644.53;4950921;28;20493;-81
2023/08/07 00:41:17;;;;;;;6.38;1.85;;;;;;;15.97;78.75;99651.88;4957055;28;20137;-80
2023/08/07 00:43:43;;;;;;;6.90;1.80;;;;;;;15.95;78.72;99646.72;4968191;28;20046;-80
2023/08/07 00:46:10;;;;;;;3.63;1.55;;;;;;;15.94;78.60;99650.41;4963597;28;20053;-81
2023/08/07 00:48:37;;;;;;;7.32;1.77;;;;;;;15.94;79.28;99641.53;4969006;28;20097;-80
2023/08/07 00:51:04;;;;;;;3.65;1.42;;;;;;;15.95;79.33;99649.41;4938838;28;20066;-80
2023/08/07 00:53:31;;;;;;;2.92;1.50;;;;;;;15.93;79.02;99645.22;4971036;28;20046;-81
2023/08/07 00:55:58;;;;;;;4.88;1.77;;;;;;;15.93;79.14;99654.09;4982940;28;20097;-81
2023/08/07 00:58:25;;;;;;;4.20;1.50;;;;;;;15.93;79.71;99651.41;4959044;28;20117;-80
2023/08/07 01:00:52;;;;;;;11.38;2.20;;;;;;;15.93;79.62;99653.25;4951890;28;20042;-80
2023/08/07 01:03:19;;;;;;;2.92;1.67;;;;;;;15.90;79.39;99646.41;4955637;28;20054;-80
2023/08/07 01:05:46;;;;;;;3.42;1.48;;;;;;;15.93;79.05;99648.75;4965796;28;20068;-82
2023/08/07 01:08:12;;;;;;;7.28;2.20;;;;;;;15.93;78.74;99654.09;4954557;28;20429;-82
2023/08/07 01:11:09;;;;;;;11.32;3.05;;;;;;;15.87;79.05;99652.09;4974112;28;20128;-81
2023/08/07 01:14:16;;;;;;;5.68;1.70;;;;;;;15.84;78.77;99652.44;4980860;28;20125;-80
2023/08/07 01:16:50;;;;;;;5.68;1.75;;;;;;;15.87;78.69;99659.31;4987698;28;20045;-81
2023/08/07 01:19:26;;;;;;;3.70;1.60;;;;;;;15.84;79.26;99655.13;4978242;28;20054;-80
2023/08/07 01:22:12;;;;;;;7.45;1.83;;;;;;;15.81;78.48;99656.31;4972612;28;20096;-81
2023/08/07 01:24:40;;;;;;;6.78;2.15;;;;;;;15.88;78.49;99659.13;5009004;28;20050;-82
2023/08/07 01:27:27;;;;;;;6.07;1.50;;;;;;;15.81;77.78;99656.31;5004300;28;20101;-82
2023/08/07 01:30:32;;;;;;;6.70;1.73;;;;;;;15.83;77.80;99656.97;4988857;28;20599;-81
2023/08/07 01:33:18;;;;;;;6.93;2.40;;;;;;;15.86;77.81;99663.00;5005860;28;20433;-81
2023/08/07 01:35:47;;;;;;;6.90;1.60;;;;;;;15.83;78.23;99667.69;5021155;28;20038;-82
2023/08/07 01:38:14;;;;;;;2.90;1.90;;;;;;;15.82;77.34;99660.69;4987646;28;20462;-81
2023/08/07 01:40:41;;;;;;;4.03;1.83;;;;;;;15.84;77.95;99652.44;4989341;28;20056;-81
2023/08/07 01:43:08;;;;;;;5.18;1.92;;;;;;;15.87;77.58;99656.63;4972856;28;20042;-81
2023/08/07 01:45:35;;;;;;;5.75;1.73;;;;;;;15.81;77.74;99667.03;4967654;28;20064;-81
2023/08/07 01:48:02;;;;;;;5.10;1.70;;;;;;;15.80;77.80;99678.75;4974769;28;20039;-81
2023/08/07 01:50:29;;;;;;;5.00;1.65;;;;;;;15.77;78.36;99684.47;4989123;28;20046;-81
2023/08/07 01:52:57;;;;;;;5.53;1.60;;;;;;;15.75;78.86;99673.09;4938025;28;20560;-80
2023/08/07 01:55:24;;;;;;;6.90;1.98;;;;;;;15.78;78.99;99672.72;4988836;28;20137;-81
2023/08/07 01:57:51;;;;;;;3.45;1.52;;;;;;;15.76;77.73;99673.91;4970104;28;20068;-81
2023/08/07 02:00:19;;;;;;;3.58;1.75;;;;;;;15.76;77.85;99665.88;4992400;28;20057;-81
2023/08/07 02:02:46;;;;;;;4.30;1.85;;;;;;;15.80;77.26;99681.44;5005438;28;20076;-81
2023/08/07 02:05:14;;;;;;;6.32;1.70;;;;;;;15.74;77.32;99668.72;4992428;28;20050;-81
2023/08/07 02:07:41;;;;;;;4.45;1.95;;;;;;;15.74;77.63;99670.56;4992973;28;20042;-81
2023/08/07 02:10:08;;;;;;;2.80;1.48;;;;;;;15.73;77.46;99667.06;5006468;28;20460;-81
2023/08/07 02:12:35;;;;;;;8.10;1.70;;;;;;;15.74;77.63;99673.25;5024878;28;20070;-81
2023/08/07 02:15:02;;;;;;;4.45;1.33;;;;;;;15.72;77.60;99675.25;5007817;28;20512;-82
2023/08/07 02:17:30;;;;;;;5.47;1.92;;;;;;;15.73;77.28;99680.44;4965978;28;20490;-81
2023/08/07 02:19:58;;;;;;;5.07;1.70;;;;;;;15.73;77.31;99680.44;4972021;28;20042;-81
2023/08/07 02:22:24;;;;;;;5.25;1.35;;;;;;;15.72;77.19;99675.25;5022320;28;20046;-80
2023/08/07 02:24:51;;;;;;;3.67;1.83;;;;;;;15.72;77.42;99675.25;5023838;28;20048;-81
2023/08/07 02:27:18;;;;;;;6.28;1.70;;;;;;;15.70;77.57;99687.97;4970625;28;20050;-81
2023/08/07 02:29:46;;;;;;;10.27;1.90;;;;;;;15.69;77.34;99684.47;4974546;28;20097;-82
2023/08/07 02:32:13;;;;;;;4.97;1.80;;;;;;;15.71;77.10;99681.63;4973262;28;20548;-81
2023/08/07 02:34:40;;;;;;;5.88;1.67;;;;;;;15.69;77.04;99689.81;4972716;28;20374;-82
2023/08/07 02:37:06;;;;;;;4.35;1.90;;;;;;;15.64;77.21;99695.66;5016863;28;20056;-82
2023/08/07 02:39:33;;;;;;;4.68;1.60;;;;;;;15.64;76.89;99686.78;5004895;28;20096;-82
2023/08/07 02:42:00;;;;;;;2.83;1.60;;;;;;;15.65;76.67;99683.13;4932641;28;20049;-82
2023/08/07 02:44:27;;;;;;;10.50;2.05;;;;;;;15.62;76.63;99695.00;4952666;28;20057;-82
2023/08/07 02:46:54;;;;;;;5.60;2.95;;;;;;;15.65;76.55;99696.50;4940891;28;20751;-81
2023/08/07 02:49:21;;;;;;;6.25;2.90;;;;;;;15.63;77.05;99698.50;4966914;28;20047;-82
2023/08/07 02:51:48;;;;;;;6.50;1.77;;;;;;;15.59;77.08;99689.97;4955118;28;20516;-82
2023/08/07 02:54:15;;;;;;;5.70;1.60;;;;;;;15.62;76.72;99694.16;4958533;28;20125;-82
2023/08/07 02:56:42;;;;;;;2.63;1.90;;;;;;;15.58;76.78;99704.38;4969534;28;20615;-81
2023/08/07 02:59:08;;;;;;;3.47;1.92;;;;;;;15.59;77.16;99702.53;4967206;28;20069;-81
2023/08/07 03:01:35;;;;;;;8.43;1.90;;;;;;;15.57;76.43;99707.22;4986912;28;20367;-81
2023/08/07 03:04:02;;;;;;;11.25;2.35;;;;;;;15.57;76.43;99704.53;4973020;28;20129;-81
2023/08/07 03:06:29;;;;;;;4.47;2.20;;;;;;;15.58;76.31;99695.53;4968854;28;20489;-82
2023/08/07 03:08:55;;;;;;;5.38;1.70;;;;;;;15.58;76.46;99706.22;4994640;28;20062;-81
2023/08/07 03:11:22;;;;;;;4.38;2.05;;;;;;;15.57;76.42;99701.84;4978615;28;20046;-81
2023/08/07 03:13:49;;;;;;;7.70;1.90;;;;;;;15.54;76.56;99703.03;4961356;28;20065;-81
2023/08/07 03:16:16;;;;;;;8.35;1.90;;;;;;;15.53;76.59;99698.69;4987627;28;20061;-81
2023/08/07 03:18:43;;;;;;;5.05;2.08;;;;;;;15.53;76.87;99700.56;4970194;28;20355;-82
2023/08/07 03:21:10;;;;;;;7.38;1.88;;;;;;;15.54;76.12;99703.03;4982913;28;20042;-81
2023/08/07 03:23:36;;;;;;;4.80;2.33;;;;;;;15.54;76.36;99710.22;4961773;28;20206;-81
2023/08/07 03:26:10;;;;;;;7.55;2.47;;;;;;;15.53;76.26;99716.59;5011806;28;20046;-81
2023/08/07 03:28:40;;;;;;;7.95;2.22;;;;;;;15.51;76.36;99705.22;5001666;28;20045;-81
2023/08/07 03:31:08;;;;;;;5.97;2.33;;;;;;;15.50;76.35;99707.06;4989675;28;20048;-81
2023/08/07 03:33:36;;;;;;;8.65;2.00;;;;;;;15.50;76.14;99720.47;4989867;28;20062;-82
2023/08/07 03:36:03;;;;;;;6.57;1.73;;;;;;;15.46;76.26;99719.13;5017132;28;20045;-81
2023/08/07 03:38:31;;;;;;;5.18;1.88;;;;;;;15.47;76.45;99719.94;5020209;28;20085;-81
2023/08/07 03:40:59;;;;;;;7.72;1.90;;;;;;;15.47;76.45;99720.81;4985400;28;20133;-81
2023/08/07 03:43:27;;;;;;;5.47;1.98;;;;;;;15.48;76.44;99724.31;4969407;28;20061;-81
2023/08/07 03:45:57;;;;;;;4.28;1.73;;;;;;;15.47;76.30;99719.94;4951975;28;20097;-81
2023/08/07 03:48:29;;;;;;;5.32;1.75;;;;;;;15.46;75.58;99721.78;4954706;28;20053;-81
2023/08/07 03:51:10;;;;;;;12.55;2.35;;;;;;;15.39;75.95;99710.94;4974298;28;20057;-81
2023/08/07 03:53:43;;;;;;;5.90;1.90;;;;;;;15.44;76.07;99714.94;4991268;28;20069;-81
2023/08/07 03:56:10;;;;;;;4.95;2.13;;;;;;;15.44;76.64;99720.28;4971621;28;20058;-83
2023/08/07 03:58:37;;;;;;;5.47;1.83;;;;;;;15.43;76.48;99719.47;4986467;28;20054;-84
2023/08/07 04:01:05;;;;;;;4.15;1.98;;;;;;;15.44;76.03;99714.94;5020809;28;20053;-84
2023/08/07 04:03:32;;;;;;;6.78;2.10;;;;;;;15.44;75.81;99715.78;5003404;28;20060;-84
2023/08/07 04:06:01;;;;;;;5.18;1.92;;;;;;;15.46;75.43;99723.63;5019399;28;20049;-84
2023/08/07 04:08:28;;;;;;;6.30;2.20;;;;;;;15.44;75.57;99729.16;4975161;28;20043;-84
2023/08/07 04:11:02;;;;;;;6.78;1.90;;;;;;;15.37;75.78;99729.00;4984418;28;20129;-84
2023/08/07 04:13:30;;;;;;;6.20;1.92;;;;;;;15.39;76.00;99745.75;4975751;28;20108;-84
2023/08/07 04:15:58;;;;;;;3.67;2.00;;;;;;;15.36;75.88;99740.69;4984963;28;20053;-84
2023/08/07 04:18:25;;;;;;;9.30;2.28;;;;;;;15.37;75.90;99742.38;4982314;28;20061;-84
2023/08/07 04:20:55;;;;;;;4.63;2.15;;;;;;;15.33;76.42;99748.25;4952507;28;20116;-85
2023/08/07 04:23:23;;;;;;;9.20;2.05;;;;;;;15.36;76.46;99740.69;4981458;28;20495;-85
2023/08/07 04:25:51;;;;;;;9.82;2.30;;;;;;;15.33;76.22;99746.41;4982100;28;20132;-84
2023/08/07 04:28:18;;;;;;;4.68;2.08;;;;;;;15.33;76.36;99743.72;4972677;28;20096;-84
2023/08/07 04:30:49;;;;;;;4.25;2.10;;;;;;;15.33;76.49;99749.06;4969595;28;20124;-82
2023/08/07 04:33:16;;;;;;;4.78;1.73;;;;;;;15.32;76.38;99749.25;4965928;28;20057;-84
2023/08/07 04:35:43;;;;;;;7.35;2.72;;;;;;;15.32;76.52;99743.91;4972493;28;20062;-83
2023/08/07 04:38:10;;;;;;;3.15;1.48;;;;;;;15.30;76.26;99736.03;4976929;28;20120;-82
2023/08/07 04:40:37;;;;;;;6.75;1.98;;;;;;;15.28;76.42;99743.38;4967723;28;20050;-82
2023/08/07 04:43:04;;;;;;;5.50;1.85;;;;;;;15.32;76.27;99750.09;4975846;28;20049;-82
2023/08/07 04:45:31;;;;;;;6.57;2.17;;;;;;;15.30;76.09;99754.75;5002248;28;20037;-83
2023/08/07 04:47:58;;;;;;;11.35;2.95;;;;;;;15.29;76.57;99755.78;4985089;28;20049;-83
2023/08/07 04:50:24;;;;;;;4.55;2.10;;;;;;;15.30;76.42;99756.59;5002885;28;20517;-83
2023/08/07 04:52:51;;;;;;;3.80;1.92;;;;;;;15.28;76.46;99755.94;4996263;28;20122;-82
2023/08/07 04:55:18;;;;;;;5.80;2.15;;;;;;;15.25;76.78;99762.47;4998630;28;20400;-83
2023/08/07 04:57:46;;;;;;;8.10;2.47;;;;;;;15.27;76.23;99759.63;5016934;28;20048;-83
2023/08/07 05:00:13;;;;;;;7.35;2.05;;;;;;;15.22;76.81;99765.47;5008796;28;20053;-82
2023/08/07 05:02:40;;;;;;;7.22;2.20;;;;;;;15.21;77.14;99771.81;4967071;28;20043;-82
2023/08/07 05:05:09;;;;;;;5.88;2.00;;;;;;;15.21;77.16;99774.47;4963674;28;20042;-82
2023/08/07 05:07:35;;;;;;;7.47;2.30;;;;;;;15.24;77.20;99770.63;4966756;28;20055;-82
2023/08/07 05:10:02;;;;;;;5.30;2.30;;;;;;;15.22;77.38;99764.66;4970060;28;20038;-83
2023/08/07 05:12:29;;;;;;;10.25;2.50;;;;;;;15.22;77.27;99770.81;4950919;28;20521;-82
2023/08/07 05:14:56;;;;;;;9.27;1.98;;;;;;;15.25;77.12;99775.84;4959761;28;20137;-82
2023/08/07 05:17:23;;;;;;;8.77;2.20;;;;;;;15.22;76.93;99770.00;5004122;28;20096;-82
2023/08/07 05:19:49;;;;;;;5.95;2.15;;;;;;;15.19;77.64;99769.31;4992809;28;20945;-83
2023/08/07 05:22:16;;;;;;;6.50;1.90;;;;;;;15.20;77.16;99772.81;5015178;28;20111;-83
2023/08/07 05:24:44;;;;;;;4.95;2.40;;;;;;;15.18;77.63;99772.97;4986402;28;20046;-83
2023/08/07 05:27:11;;;;;;;5.55;1.90;;;;;;;15.19;77.62;99777.34;5016947;28;20056;-83
2023/08/07 05:29:43;;;;;;;6.78;2.38;;;;;;;15.21;77.17;99777.16;5000190;28;20096;-83
2023/08/07 05:32:14;;;;;;;8.20;2.38;;;;;;;15.16;77.32;99779.50;4982226;28;20049;-82
2023/08/07 05:34:41;;;;;;;6.30;2.00;;;;;;;15.18;77.68;99772.97;5001514;28;20043;-83
2023/08/07 05:37:08;;;;;;;8.05;2.67;;;;;;;15.18;77.72;99786.34;5017169;28;20437;-83
2023/08/07 05:39:35;;;;;;;4.53;1.98;;;;;;;15.19;77.65;99788.03;5019470;28;20390;-83
2023/08/07 05:42:02;;;;;;;6.38;2.00;;;;;;;15.19;77.69;99787.22;4978479;28;20038;-82
2023/08/07 05:44:29;;;;;;;7.55;2.50;;;;;;;15.17;78.09;99790.03;4974805;28;20046;-82
2023/08/07 05:46:56;;;;;;;5.40;2.20;;;;;;;15.20;77.73;99794.22;4946931;28;20080;-82
2023/08/07 05:49:23;;;;;;;3.05;2.22;;;;;;;15.20;78.12;99786.19;4956874;28;20397;-83
2023/08/07 05:51:52;;;;;;;12.85;2.70;;;;;;;15.23;77.90;99793.88;4953786;28;20109;-83
2023/08/07 05:54:20;;;;;;;7.22;2.25;;;;;;;15.23;78.19;99793.88;4968096;28;20070;-83
2023/08/07 05:56:47;;;;;;;5.75;2.50;;;;;;;15.24;78.01;99794.72;4970345;28;20086;-82
2023/08/07 05:59:15;;;;;;;10.38;2.72;;;;;;;15.23;78.41;99799.22;4972838;28;20082;-83
2023/08/07 06:01:41;;;;;;;8.40;2.38;;;;;;;15.24;78.39;99800.06;4947740;28;20038;-82
2023/08/07 06:04:08;;;;;;;4.65;2.03;;;;;;;15.22;78.57;99805.59;4941874;28;20045;-83
2023/08/07 06:06:36;;;;;;;8.82;3.05;;;;;;;15.24;78.54;99806.28;4979276;28;20130;-83
2023/08/07 06:09:03;;;;;;;8.02;2.42;;;;;;;15.22;78.66;99813.63;4999341;28;20049;-82
2023/08/07 06:11:30;;;;;;;6.32;1.98;;;;;;;15.25;78.80;99813.28;4965297;28;20050;-83
2023/08/07 06:13:57;;;;;;;4.70;2.25;;;;;;;15.28;78.65;99814.78;5002702;28;20133;-83
2023/08/07 06:16:24;;;;;;;5.93;2.40;;;;;;;15.27;78.30;99810.44;4965809;28;20043;-83
2023/08/07 06:18:51;;;;;;;4.60;2.33;;;;;;;15.32;78.38;99816.13;4981831;28;20054;-83
2023/08/07 06:21:19;;;;;;;10.20;2.25;;;;;;;15.32;78.15;99824.16;4984676;28;20046;-83
2023/08/07 06:23:46;;;;;;;8.45;2.33;;;;;;;15.31;78.30;99809.09;4984103;28;20428;-82
2023/08/07 06:26:13;;;;;;;5.80;2.03;;;;;;;15.32;78.64;99821.50;4970593;28;20050;-82
2023/08/07 06:28:41;;;;;;;7.07;2.00;;;;;;;15.33;78.07;99828.50;4970070;28;20046;-83
2023/08/07 06:31:09;;;;;;;6.28;2.33;;;;;;;15.32;78.40;99827.66;4951862;28;20042;-83
2023/08/07 06:33:36;;;;;;;8.50;2.30;;;;;;;15.35;78.56;99826.50;4956291;28;20085;-82
2023/08/07 06:36:04;;;;;;;6.60;2.17;;;;;;;15.36;78.13;99828.16;4979350;28;20918;-82
2023/08/07 06:38:31;;;;;;;5.30;1.80;;;;;;;15.35;78.31;99826.50;4931769;28;20043;-86
2023/08/07 06:40:57;;;;;;;6.63;2.33;;;;;;;15.35;78.44;99824.66;4974337;28;20050;-84
2023/08/07 06:43:24;;;;;;;9.07;2.47;;;;;;;15.37;78.20;99840.56;5019551;28;20042;-84
2023/08/07 06:45:53;;;;;;;5.78;2.20;;;;;;;15.38;78.24;99834.19;5019762;28;20060;-85
2023/08/07 06:48:20;;;;;;;4.32;2.00;;;;;;;15.41;77.62;99826.66;4986585;28;20049;-83
2023/08/07 06:50:47;;;;;;;4.82;2.08;;;;;;;15.43;77.98;99836.38;5002108;28;20069;-82
2023/08/07 06:53:14;;;;;;;7.03;2.65;;;;;;;15.46;77.97;99828.00;5001151;28;20054;-87
2023/08/07 06:55:41;;;;;;;6.43;2.45;;;;;;;15.45;77.70;99831.69;5004291;28;20116;-85
2023/08/07 06:58:08;;;;;;;3.97;1.83;;;;;;;15.48;77.30;99834.03;5019198;28;20116;-85
2023/08/07 07:00:36;;;;;;;11.90;3.05;;;;;;;15.44;78.08;99843.38;5020233;28;20041;-85
2023/08/07 07:03:03;;;;;;;6.97;2.08;;;;;;;15.45;77.89;99843.22;5001438;28;20823;-86
2023/08/07 07:05:30;;;;;;;8.10;3.38;;;;;;;15.44;77.84;99841.53;4988181;28;20053;-86
2023/08/07 07:07:57;;;;;;;3.50;2.20;;;;;;;15.44;78.15;99848.72;4990630;28;20141;-83
2023/08/07 07:10:24;;;;;;;5.13;1.98;;;;;;;15.43;78.50;99853.25;5002608;28;20100;-84
2023/08/07 07:12:52;;;;;;;4.53;2.10;;;;;;;15.43;78.28;99857.78;5006757;28;20052;-83
2023/08/07 07:15:18;;;;;;;8.15;2.05;;;;;;;15.43;78.23;99863.13;4988394;28;20413;-83
2023/08/07 07:17:45;;;;;;;5.32;2.20;;;;;;;15.41;78.27;99855.25;5021589;28;20161;-83
2023/08/07 07:20:12;;;;;;;7.32;2.50;;;;;;;15.40;78.22;99857.09;4993954;28;20921;-83
2023/08/07 07:22:39;;;;;;;3.83;2.67;;;;;;;15.41;78.26;99864.13;5003848;28;20092;-83
2023/08/07 07:25:06;;;;;;;6.18;2.60;;;;;;;15.43;78.06;99865.81;4992535;28;20050;-84
2023/08/07 07:27:33;;;;;;;7.50;2.33;;;;;;;15.44;77.88;99864.78;4971691;28;20057;-85
2023/08/07 07:30:00;;;;;;;5.20;2.28;;;;;;;15.45;78.17;99861.97;5011425;28;20068;-85
2023/08/07 07:32:29;;;;;;;5.63;2.80;;;;;;;15.48;78.16;99860.78;4982906;28;20061;-84
2023/08/07 07:34:56;;;;;;;5.63;2.63;;;;;;;15.50;78.33;99869.50;4969921;28;20035;-84
2023/08/07 07:37:23;;;;;;;6.97;2.58;;;;;;;15.52;78.30;99867.47;4968000;28;20415;-84
2023/08/07 07:39:50;;;;;;;5.78;2.28;;;;;;;15.54;78.00;99865.47;4983159;28;20046;-84
2023/08/07 07:42:16;;;;;;;6.13;1.85;;;;;;;15.56;77.67;99871.50;4968401;28;20559;-83
2023/08/07 07:44:43;;;;;;;3.40;2.03;;;;;;;15.62;77.93;99878.84;4969142;28;20096;-84
2023/08/07 07:47:11;;;;;;;6.40;2.83;;;;;;;15.67;78.57;99876.50;4967296;28;20136;-83
2023/08/07 07:49:47;;;;;;;4.95;2.22;;;;;;;15.73;77.64;99873.19;4962495;28;20141;-84
2023/08/07 07:52:14;;;;;;;9.10;2.63;;;;;;;15.74;77.22;99884.72;4971359;28;20046;-82
2023/08/07 07:54:41;;;;;;;7.68;2.22;;;;;;;15.76;77.47;99891.59;4969929;28;20057;-82
2023/08/07 07:57:08;;;;;;;6.00;2.50;;;;;;;15.76;77.38;99888.91;4953193;28;22165;-82
2023/08/07 07:59:35;;;;;;;5.53;2.38;;;;;;;15.80;77.18;99890.28;4944534;28;20128;-82
2023/08/07 08:02:02;;;;;;;5.40;2.30;;;;;;;15.84;77.15;99896.94;4980192;28;20145;-82
2023/08/07 08:04:29;;;;;;;8.40;4.15;;;;;;;15.89;79.01;99893.75;4964358;28;20043;-82
2023/08/07 08:06:56;;;;;;;8.82;2.33;;;;;;;15.91;77.87;99898.97;4968670;28;20046;-82
2023/08/07 08:09:23;;;;;;;4.55;2.25;;;;;;;15.91;77.35;99904.31;4977892;28;20045;-83
2023/08/07 08:11:49;;;;;;;4.00;2.00;;;;;;;15.88;77.31;99908.16;4936308;28;20736;-82
2023/08/07 08:14:16;;;;;;;6.45;2.20;;;;;;;15.85;76.39;99905.84;4979311;28;20144;-83
2023/08/07 08:16:43;;;;;;;6.10;2.10;;;;;;;15.82;76.64;99908.81;5021212;28;20049;-85
2023/08/07 08:19:10;;;;;;;6.85;2.03;;;;;;;15.81;76.93;99904.47;5035381;28;20068;-83
2023/08/07 08:21:37;;;;;;;5.68;2.33;;;;;;;15.84;76.96;99904.97;4983479;28;20045;-83
2023/08/07 08:24:04;;;;;;;5.40;2.10;;;;;;;15.88;76.61;99918.06;5018851;28;20041;-85
2023/08/07 08:26:31;;;;;;;5.50;2.17;;;;;;;15.87;76.81;99922.53;5009624;28;20137;-85
2023/08/07 08:28:58;;;;;;;9.30;2.33;;;;;;;15.86;76.17;99933.44;5036122;28;20137;-85
2023/08/07 08:31:24;;;;;;;5.80;1.98;;;;;;;15.81;75.94;99932.09;5032845;28;20431;-86
2023/08/07 08:33:51;;;;;;;6.30;2.50;;;;;;;15.83;76.45;99934.63;4969078;28;20084;-86
2023/08/07 08:36:18;;;;;;;3.40;2.42;;;;;;;15.87;76.70;99935.09;5040103;28;20037;-86
2023/08/07 08:38:47;;;;;;;4.15;2.20;;;;;;;15.83;77.05;99939.97;4987911;28;20121;-85
2023/08/07 08:41:15;;;;;;;5.22;2.05;;;;;;;15.83;77.25;99937.28;5010656;28;20042;-85
2023/08/07 08:43:43;;;;;;;3.45;1.70;;;;;;;15.84;77.41;99947.81;4986947;28;20057;-85
2023/08/07 08:46:10;;;;;;;3.85;2.13;;;;;;;15.84;77.68;99945.13;4974046;28;20124;-85
2023/08/07 08:48:39;;;;;;;4.70;1.98;;;;;;;15.82;77.49;99947.16;5008585;28;20046;-85
2023/08/07 08:51:06;;;;;;;9.13;2.58;;;;;;;15.82;77.20;99944.50;5008318;28;20052;-83
2023/08/07 08:53:33;;;;;;;3.85;2.35;;;;;;;15.84;77.18;99955.03;5000383;28;20061;-85
2023/08/07 08:56:01;;;;;;;7.45;2.55;;;;;;;15.82;77.23;99949.84;5000241;28;20045;-83
2023/08/07 08:58:28;;;;;;;4.53;2.13;;;;;;;15.83;77.48;99954.19;5015048;28;20100;-83
2023/08/07 09:00:55;;;;;;;5.97;2.38;;;;;;;15.89;77.38;99955.34;5010379;28;20406;-83
2023/08/07 09:03:23;;;;;;;8.60;2.40;;;;;;;15.94;77.82;99954.84;4977311;28;20054;-83
2023/08/07 09:05:53;;;;;;;6.22;2.40;;;;;;;15.93;77.08;99948.66;4970282;28;20046;-83
2023/08/07 09:08:21;;;;;;;7.30;2.00;;;;;;;15.95;77.55;99951.16;4964328;28;20413;-83
2023/08/07 09:10:48;;;;;;;7.28;2.10;;;;;;;15.97;77.57;99958.03;4960066;28;20046;-83
2023/08/07 09:13:18;;;;;;;5.18;1.88;;;;;;;16.01;77.22;99958.53;4937093;28;20517;-83
2023/08/07 09:15:50;;;;;;;5.28;2.33;;;;;;;16.05;77.55;99959.88;4982588;28;20065;-84
2023/08/07 09:18:19;;;;;;;4.32;1.92;;;;;;;16.05;77.70;99957.19;4982264;28;20047;-83
2023/08/07 09:20:45;;;;;;;4.00;2.25;;;;;;;16.03;76.59;99960.06;4985403;28;20058;-83
2023/08/07 09:23:12;;;;;;;5.43;2.47;;;;;;;16.05;77.05;99959.88;5016735;28;20045;-82
2023/08/07 09:25:39;;;;;;;4.45;2.28;;;;;;;16.06;76.85;99969.59;5030127;28;20678;-84
2023/08/07 09:28:06;;;;;;;6.07;1.95;;;;;;;16.07;75.90;99965.91;5003941;28;20458;-84
2023/08/07 09:30:35;;;;;;;4.88;1.85;;;;;;;16.08;76.26;99964.03;4980068;28;20073;-84
2023/08/07 09:33:02;;;;;;;4.60;1.90;;;;;;;16.15;77.11;99948.97;4972649;28;21072;-84
2023/08/07 09:35:33;;;;;;;5.88;2.08;;;;;;;16.20;77.30;99960.84;4975559;28;20050;-83
2023/08/07 09:38:01;;;;;;;3.17;1.88;;;;;;;16.21;75.97;99967.91;4952287;28;20050;-83
2023/08/07 09:40:29;;;;;;;5.53;2.17;;;;;;;16.26;75.75;99970.91;4964998;28;20052;-83
2023/08/07 09:42:56;;;;;;;6.65;2.20;;;;;;;16.25;76.29;99963.88;4969594;28;20088;-84
2023/08/07 09:45:24;;;;;;;5.03;2.47;;;;;;;16.27;76.19;99967.22;4982655;28;20513;-83
2023/08/07 09:48:00;;;;;;;5.03;1.98;;;;;;;16.29;75.70;99980.47;4938193;28;20043;-82
2023/08/07 09:50:27;;;;;;;6.75;1.65;;;;;;;16.33;75.61;99978.25;4999564;28;20136;-83
2023/08/07 09:52:55;;;;;;;5.18;2.10;;;;;;;16.38;75.74;99984.78;5038488;28;20132;-83
2023/08/07 09:55:22;;;;;;;5.32;2.30;;;;;;;16.40;74.01;99984.63;5038941;28;20209;-83
2023/08/07 09:57:50;;;;;;;3.65;1.85;;;;;;;16.38;74.22;99976.75;5006030;28;20042;-84
2023/08/07 10:00:19;;;;;;;5.95;1.95;;;;;;;16.38;74.64;99979.41;4986735;28;20124;-84
2023/08/07 10:02:48;;;;;;;4.72;2.05;;;;;;;16.41;74.93;99984.47;5001002;28;20460;-83
2023/08/07 10:05:16;;;;;;;7.75;1.85;;;;;;;16.42;73.78;99974.56;5005299;28;20100;-84
2023/08/07 10:07:43;;;;;;;4.85;1.75;;;;;;;16.45;73.91;99985.78;5038617;28;20080;-83
2023/08/07 10:10:10;;;;;;;7.50;1.95;;;;;;;16.53;73.82;99992.13;4992585;28;20050;-84
2023/08/07 10:12:38;;;;;;;4.47;1.67;;;;;;;16.59;73.79;99986.09;5020698;28;20045;-84
2023/08/07 10:15:06;;;;;;;4.10;1.90;;;;;;;16.60;73.29;100001.19;4989734;28;20048;-84
2023/08/07 10:17:33;;;;;;;5.35;1.60;;;;;;;16.57;72.05;100002.38;5037582;28;20050;-84
2023/08/07 10:20:00;;;;;;;8.45;1.98;;;;;;;16.60;70.96;99996.66;4996981;28;20132;-83
2023/08/07 10:22:30;;;;;;;6.20;1.90;;;;;;;16.53;72.04;100001.00;5025216;28;20133;-83
2023/08/07 10:25:01;;;;;;;6.18;2.17;;;;;;;16.56;72.76;100008.72;5036612;28;20408;-83
2023/08/07 10:27:30;;;;;;;5.65;2.05;;;;;;;16.60;72.75;100007.38;4991059;28;20040;-83
2023/08/07 10:29:58;;;;;;;4.70;2.20;;;;;;;16.65;73.30;100006.88;4993571;28;20093;-83
2023/08/07 10:32:27;;;;;;;5.53;2.20;;;;;;;16.70;73.47;100021.44;5018565;28;20046;-83
2023/08/07 10:34:55;;;;;;;4.45;1.88;;;;;;;16.69;72.79;100018.94;5004645;28;20041;-83
2023/08/07 10:37:42;;;;;;;2.75;1.75;;;;;;;16.60;71.48;100015.41;5001958;28;20047;-82
2023/08/07 10:40:11;;;;;;;2.50;1.75;;;;;;;16.61;71.77;100019.78;5016477;28;20054;-83
2023/08/07 10:43:17;;;;;;;9.25;2.10;;;;;;;16.48;70.45;100030.16;5014269;28;20104;-83
2023/08/07 10:45:43;;;;;;;5.97;1.90;;;;;;;16.54;72.15;100023.28;4983487;28;20125;-84
2023/08/07 10:48:12;;;;;;;5.45;1.83;;;;;;;16.58;71.47;100020.09;4955139;28;21051;-83
2023/08/07 10:50:59;;;;;;;2.78;1.75;;;;;;;16.58;71.33;100028.16;4981412;28;20501;-84
2023/08/07 10:53:36;;;;;;;7.40;2.10;;;;;;;16.67;69.57;100023.63;4982040;28;25815;-84
2023/08/07 10:56:04;;;;;;;4.43;2.05;;;;;;;16.62;70.74;100029.50;4968386;28;20042;-84
2023/08/07 10:58:35;;;;;;;3.55;1.90;;;;;;;16.67;71.62;100021.78;4957165;28;20122;-85
2023/08/07 11:01:39;;;;;;;6.63;2.10;;;;;;;16.64;70.81;100026.66;4956499;28;20629;-83
2023/08/07 11:04:10;;;;;;;;;;;;;;;16.57;71.37;100021.13;4972132;28;20042;-84
2023/08/07 11:06:37;;;;;;;5.00;1.83;;;;;;;16.71;72.46;100027.63;4984556;28;20044;-83
2023/08/07 11:09:06;;;;;;;4.15;2.40;;;;;;;16.74;72.55;100032.66;4982081;28;20066;-84
2023/08/07 11:11:40;;;;;;;5.05;1.80;;;;;;;16.68;71.22;100031.47;5001272;28;20058;-85
2023/08/07 11:14:12;;;;;;;3.50;1.73;;;;;;;16.66;70.94;100036.19;5020844;28;20489;-85
2023/08/07 11:16:39;;;;;;;6.97;1.83;;;;;;;16.60;70.60;100025.31;4983202;28;20050;-86
2023/08/07 11:19:08;;;;;;;8.60;1.77;;;;;;;16.61;70.92;100037.69;4998837;28;20077;-86
2023/08/07 11:21:35;;;;;;;2.13;1.55;;;;;;;16.59;71.33;100050.44;4981909;28;20057;-86
2023/08/07 11:24:02;;;;;;;4.50;1.77;;;;;;;16.55;71.03;100036.53;4958034;28;20053;-86
2023/08/07 11:26:29;;;;;;;4.63;2.10;;;;;;;16.59;71.36;100048.59;5003679;28;20065;-88
2023/08/07 11:28:57;;;;;;;6.38;2.00;;;;;;;16.57;71.45;100047.94;5000590;28;20053;-87
2023/08/07 11:31:25;;;;;;;12.90;2.50;;;;;;;16.59;72.58;100047.75;4958989;28;20572;-88
2023/08/07 11:33:52;;;;;;;7.13;2.17;;;;;;;16.55;72.43;100047.25;5019421;28;20042;-88
2023/08/07 11:36:19;;;;;;;4.72;2.20;;;;;;;16.54;73.26;100053.63;4975306;28;20084;-84
2023/08/07 11:38:46;;;;;;;6.40;2.25;;;;;;;16.52;73.72;100041.41;5006183;28;20050;-83